Terminal Aerodrome Forecast
Issued by NWS Tampa Bay Area, FL

Home | Current Version | Previous Version | Text Only | Print | Product List | Glossary On
Versions: 1 2 3 4 5 6 7 8 9 10 11 12 13 14 15 16
925
FTUS42 KTBW 171136
TAFSRQ
TAF
KSRQ 171136Z 1712/1812 11006KT P6SM BKN250
     FM171400 13009KT P6SM SCT030 BKN250
     FM171800 20009KT P6SM SCT040 SCT250
     FM172100 23008KT P6SM SCT050 SCT250
     FM180000 VRB04KT P6SM SCT050 SCT250=

USA.gov is the U.S. government's official web portal to all federal, state and local government web resources and services.